createdAt,value
2023-05-11T00:02:15.008Z,2.78
2023-05-11T00:04:42.096Z,5.63
2023-05-11T00:07:08.993Z,6.15
2023-05-11T00:09:36.110Z,6.93
2023-05-11T00:12:03.018Z,3.88
2023-05-11T00:14:30.172Z,6.18
2023-05-11T00:16:56.979Z,4.60
2023-05-11T00:19:23.906Z,6.65
2023-05-11T00:21:51.007Z,6.65
2023-05-11T00:24:17.803Z,4.68
2023-05-11T00:26:44.755Z,4.13
2023-05-11T00:29:11.555Z,6.35
2023-05-11T00:31:38.506Z,4.97
2023-05-11T00:34:05.504Z,11.23
2023-05-11T00:36:33.300Z,5.22
2023-05-11T00:39:00.585Z,3.15
2023-05-11T00:41:27.477Z,9.13
2023-05-11T00:43:54.362Z,4.25
2023-05-11T00:46:21.598Z,3.13
2023-05-11T00:48:48.705Z,4.18
2023-05-11T00:51:15.946Z,5.05
2023-05-11T00:53:43.012Z,3.28
2023-05-11T00:56:09.925Z,4.13
2023-05-11T00:58:37.192Z,5.85
2023-05-11T01:01:04.373Z,5.50
2023-05-11T01:03:33.160Z,3.85
2023-05-11T01:06:21.420Z,6.18
2023-05-11T01:08:57.351Z,10.88
2023-05-11T01:11:30.519Z,3.83
2023-05-11T01:14:03.966Z,3.55
2023-05-11T01:16:35.756Z,7.20
2023-05-11T01:19:12.998Z,4.93
2023-05-11T01:21:40.909Z,5.97
2023-05-11T01:24:27.304Z,9.63
2023-05-11T01:27:18.419Z,6.25
2023-05-11T01:29:58.615Z,5.60
2023-05-11T01:32:33.237Z,7.47
2023-05-11T01:35:19.667Z,6.28
2023-05-11T01:37:53.183Z,4.32
2023-05-11T01:40:24.876Z,5.18
2023-05-11T01:43:04.013Z,6.85
2023-05-11T01:45:39.122Z,8.50
2023-05-11T01:48:10.401Z,5.18
2023-05-11T01:50:39.011Z,5.10
2023-05-11T01:53:07.819Z,4.35
2023-05-11T01:55:36.276Z,3.13
2023-05-11T01:58:05.660Z,5.13
2023-05-11T02:00:33.890Z,7.72
2023-05-11T02:03:02.794Z,3.53
2023-05-11T02:05:31.191Z,4.70
2023-05-11T02:08:00.589Z,3.78
2023-05-11T02:10:28.155Z,6.20
2023-05-11T02:12:56.709Z,5.25
2023-05-11T02:15:25.160Z,3.88
2023-05-11T02:17:54.504Z,12.38
2023-05-11T02:20:21.870Z,3.67
2023-05-11T02:22:49.832Z,5.88
2023-05-11T02:25:17.491Z,2.80
2023-05-11T02:27:44.740Z,5.57
2023-05-11T02:30:13.094Z,5.70
2023-05-11T02:32:47.797Z,3.45
2023-05-11T02:35:21.864Z,3.28
2023-05-11T02:37:49.851Z,3.78
2023-05-11T02:40:29.847Z,2.75
2023-05-11T02:43:06.668Z,3.35
2023-05-11T02:45:35.586Z,7.57
2023-05-11T02:48:09.148Z,2.17
2023-05-11T02:50:39.512Z,4.30
2023-05-11T02:53:17.419Z,5.97
2023-05-11T02:55:44.522Z,4.85
2023-05-11T02:58:12.093Z,6.03
2023-05-11T03:00:40.092Z,4.95
2023-05-11T03:03:07.469Z,6.13
2023-05-11T03:05:34.388Z,6.40
2023-05-11T03:08:02.157Z,3.58
2023-05-11T03:10:29.714Z,5.32
2023-05-11T03:12:57.019Z,6.35
2023-05-11T03:15:25.074Z,6.40
2023-05-11T03:17:53.490Z,5.05
2023-05-11T03:20:22.353Z,7.72
2023-05-11T03:22:50.024Z,4.72
2023-05-11T03:25:18.753Z,6.03
2023-05-11T03:27:46.909Z,8.43
2023-05-11T03:30:15.432Z,5.60
2023-05-11T03:32:42.648Z,6.22
2023-05-11T03:35:10.183Z,6.25
2023-05-11T03:37:38.413Z,4.40
2023-05-11T03:40:07.995Z,3.42
2023-05-11T03:42:36.404Z,9.13
2023-05-11T03:45:06.032Z,6.20
2023-05-11T03:47:33.941Z,5.43
2023-05-11T03:50:02.832Z,6.07
2023-05-11T03:52:30.748Z,4.75
2023-05-11T03:54:57.664Z,4.68
2023-05-11T03:57:28.199Z,3.85
2023-05-11T03:59:55.222Z,9.00
2023-05-11T04:02:24.652Z,5.32
2023-05-11T04:04:53.179Z,4.35
2023-05-11T04:07:20.451Z,6.13
2023-05-11T04:09:47.409Z,4.78
2023-05-11T04:12:14.273Z,8.35
2023-05-11T04:14:41.161Z,4.40
2023-05-11T04:17:08.274Z,4.25
2023-05-11T04:19:35.130Z,5.05
2023-05-11T04:22:02.024Z,6.15
2023-05-11T04:24:28.886Z,4.88
2023-05-11T04:26:57.419Z,3.40
2023-05-11T04:29:24.425Z,5.32
2023-05-11T04:31:51.153Z,5.30
2023-05-11T04:34:18.128Z,5.28
2023-05-11T04:36:48.067Z,4.15
2023-05-11T04:39:16.052Z,6.07
2023-05-11T04:41:46.333Z,9.73
2023-05-11T04:44:13.051Z,6.95
2023-05-11T04:46:39.751Z,4.65
2023-05-11T04:49:06.696Z,3.80
2023-05-11T04:51:33.434Z,6.65
2023-05-11T04:54:00.292Z,4.32
2023-05-11T04:56:27.291Z,6.47
2023-05-11T04:58:53.970Z,6.03
2023-05-11T05:01:21.278Z,4.43
2023-05-11T05:03:51.340Z,8.80
2023-05-11T05:06:18.530Z,5.80
2023-05-11T05:08:45.618Z,5.68
2023-05-11T05:11:12.670Z,6.25
2023-05-11T05:13:39.450Z,5.35
2023-05-11T05:16:06.475Z,5.18
2023-05-11T05:18:33.753Z,5.78
2023-05-11T05:21:00.580Z,10.15
2023-05-11T05:23:27.320Z,6.07
2023-05-11T05:25:54.273Z,6.10
2023-05-11T05:28:21.233Z,4.60
2023-05-11T05:30:48.028Z,7.15
2023-05-11T05:33:14.900Z,3.83
2023-05-11T05:35:43.906Z,8.68
2023-05-11T05:38:10.884Z,10.85
2023-05-11T05:40:39.408Z,7.45
2023-05-11T05:43:06.795Z,3.58
2023-05-11T05:45:33.653Z,5.35
2023-05-11T05:48:00.882Z,7.03
2023-05-11T05:50:28.027Z,7.68
2023-05-11T05:52:54.775Z,3.42
2023-05-11T05:55:22.378Z,5.88
2023-05-11T05:57:49.264Z,4.05
2023-05-11T06:00:16.468Z,4.63
2023-05-11T06:02:43.462Z,5.78
2023-05-11T06:05:10.458Z,4.60
2023-05-11T06:07:37.288Z,6.03
2023-05-11T06:10:04.431Z,6.47
2023-05-11T06:12:31.254Z,6.90
2023-05-11T06:14:57.986Z,5.68
2023-05-11T06:17:24.767Z,6.90
2023-05-11T06:19:52.404Z,6.13
2023-05-11T06:22:19.133Z,4.50
2023-05-11T06:24:46.120Z,4.70
2023-05-11T06:27:12.956Z,7.55
2023-05-11T06:29:39.749Z,4.75
2023-05-11T06:32:07.439Z,5.75
2023-05-11T06:34:34.330Z,7.65
2023-05-11T06:37:01.209Z,7.07
2023-05-11T06:39:28.050Z,8.20
2023-05-11T06:41:56.684Z,5.53
2023-05-11T06:44:24.485Z,8.25
2023-05-11T06:46:51.324Z,6.53
2023-05-11T06:49:18.026Z,6.05
2023-05-11T06:51:44.846Z,6.43
2023-05-11T06:54:11.877Z,6.75
2023-05-11T06:56:38.756Z,5.95
2023-05-11T06:59:05.863Z,5.32
2023-05-11T07:01:32.830Z,5.05
2023-05-11T07:03:59.538Z,4.10
2023-05-11T07:06:26.475Z,4.82
2023-05-11T07:08:53.358Z,5.68
2023-05-11T07:11:20.386Z,8.52
2023-05-11T07:13:47.352Z,4.78
2023-05-11T07:16:14.441Z,6.32
2023-05-11T07:18:41.253Z,5.88
2023-05-11T07:21:08.197Z,3.80
2023-05-11T07:23:35.187Z,8.75
2023-05-11T07:26:04.442Z,3.13
2023-05-11T07:28:31.469Z,6.47
2023-05-11T07:30:58.199Z,5.38
2023-05-11T07:33:25.016Z,5.15
2023-05-11T07:35:52.187Z,4.28
2023-05-11T07:38:20.220Z,6.95
2023-05-11T07:40:47.185Z,3.83
2023-05-11T07:43:13.912Z,3.10
2023-05-11T07:45:40.619Z,3.58
2023-05-11T07:48:07.817Z,5.20
2023-05-11T07:50:34.957Z,7.18
2023-05-11T07:53:01.974Z,3.78
2023-05-11T07:55:30.638Z,7.10
2023-05-11T07:57:57.501Z,5.07
2023-05-11T08:00:24.371Z,5.88
2023-05-11T08:02:51.628Z,5.95
2023-05-11T08:05:19.889Z,5.30
2023-05-11T08:07:47.365Z,5.32
2023-05-11T08:10:14.237Z,3.83
2023-05-11T08:12:41.065Z,7.00
2023-05-11T08:15:08.440Z,4.95
2023-05-11T08:17:35.873Z,5.35
2023-05-11T08:20:04.072Z,4.35
2023-05-11T08:22:31.069Z,3.70
2023-05-11T08:24:57.898Z,5.57
2023-05-11T08:27:24.652Z,5.97
2023-05-11T08:29:51.380Z,3.20
2023-05-11T08:32:18.201Z,5.00
2023-05-11T08:34:45.110Z,3.90
2023-05-11T08:37:11.968Z,7.45
2023-05-11T08:39:47.305Z,5.32
2023-05-11T08:42:18.706Z,4.03
2023-05-11T08:44:46.364Z,6.05
2023-05-11T08:49:43.456Z,4.20
2023-05-11T08:52:12.659Z,4.85
2023-05-11T08:54:39.429Z,5.65
2023-05-11T08:57:07.206Z,4.05
2023-05-11T08:59:34.398Z,4.57
2023-05-11T09:02:02.364Z,4.85
2023-05-11T09:04:29.456Z,3.90
2023-05-11T09:06:57.575Z,2.83
2023-05-11T09:09:24.409Z,2.72
2023-05-11T09:11:54.135Z,4.45
2023-05-11T09:14:27.119Z,3.00
2023-05-11T09:16:54.213Z,4.22
2023-05-11T09:19:21.846Z,3.20
2023-05-11T09:21:48.572Z,4.00
2023-05-11T09:24:15.381Z,3.05
2023-05-11T09:26:42.103Z,14.43
2023-05-11T09:29:09.436Z,5.47
2023-05-11T09:31:42.368Z,3.25
2023-05-11T09:34:23.539Z,5.05
2023-05-11T09:36:52.176Z,3.20
2023-05-11T09:39:35.617Z,4.30
2023-05-11T09:42:13.191Z,3.65
2023-05-11T09:44:41.793Z,2.60
2023-05-11T09:47:19.382Z,8.68
2023-05-11T09:49:47.819Z,3.10
2023-05-11T09:52:18.162Z,4.05
2023-05-11T09:54:46.939Z,3.80
2023-05-11T09:57:30.836Z,8.82
2023-05-11T10:00:00.238Z,4.45
2023-05-11T10:02:29.593Z,2.92
2023-05-11T10:04:58.720Z,2.97
2023-05-11T10:07:32.496Z,2.80
2023-05-11T10:12:30.356Z,3.22
2023-05-11T10:15:03.959Z,4.22
2023-05-11T10:17:30.978Z,2.45
2023-05-11T10:19:58.933Z,4.40
2023-05-11T10:22:27.509Z,4.75
2023-05-11T10:24:56.771Z,6.22
2023-05-11T10:27:24.093Z,7.30
2023-05-11T10:29:51.323Z,4.25
2023-05-11T10:32:20.159Z,3.55
2023-05-11T10:34:48.370Z,4.35
2023-05-11T10:37:16.451Z,3.03
2023-05-11T10:39:47.839Z,4.97
2023-05-11T10:42:42.404Z,4.32
2023-05-11T10:45:22.909Z,4.18
2023-05-11T10:47:53.468Z,6.70
2023-05-11T10:50:35.563Z,4.35
2023-05-11T10:53:28.677Z,2.53
2023-05-11T10:56:30.183Z,2.85
2023-05-11T11:01:47.173Z,8.85
2023-05-11T11:04:14.523Z,3.92
2023-05-11T11:06:43.711Z,3.47
2023-05-11T11:09:15.862Z,4.80
2023-05-11T11:11:48.123Z,4.28
2023-05-11T11:14:16.357Z,6.05
2023-05-11T11:17:15.339Z,2.67
2023-05-11T11:19:43.464Z,2.35
2023-05-11T11:22:35.163Z,3.47
2023-05-11T11:25:06.497Z,4.43
2023-05-11T11:27:45.325Z,3.00
2023-05-11T11:30:23.529Z,3.05
2023-05-11T11:32:55.527Z,3.53
2023-05-11T11:35:43.656Z,3.00
2023-05-11T11:38:18.942Z,4.35
2023-05-11T11:40:52.819Z,2.60
2023-05-11T11:43:22.490Z,4.38
2023-05-11T11:46:00.732Z,2.25
2023-05-11T11:48:46.865Z,4.82
2023-05-11T11:51:13.870Z,5.18
2023-05-11T11:53:45.375Z,6.68
2023-05-11T11:56:15.344Z,5.10
2023-05-11T11:58:42.482Z,7.47
2023-05-11T12:01:12.715Z,5.15
2023-05-11T12:03:41.857Z,5.40
2023-05-11T12:06:10.075Z,5.65
2023-05-11T12:08:39.098Z,3.97
2023-05-11T12:11:06.481Z,3.33
2023-05-11T12:13:34.182Z,5.97
2023-05-11T12:16:14.725Z,7.93
2023-05-11T12:18:42.586Z,4.57
2023-05-11T12:21:29.649Z,5.43
2023-05-11T12:24:04.352Z,3.65
2023-05-11T12:26:32.664Z,4.15
2023-05-11T12:29:11.569Z,6.57
2023-05-11T12:31:39.796Z,7.40
2023-05-11T12:34:06.602Z,5.72
2023-05-11T12:36:34.497Z,4.30
2023-05-11T12:39:01.229Z,5.97
2023-05-11T12:41:27.973Z,9.50
2023-05-11T12:43:56.176Z,5.15
2023-05-11T12:46:23.935Z,4.25
2023-05-11T12:48:52.504Z,3.78
2023-05-11T12:52:12.545Z,3.40
2023-05-11T12:54:41.797Z,7.78
2023-05-11T12:57:22.452Z,6.72
2023-05-11T12:59:49.199Z,4.60
2023-05-11T13:02:21.967Z,6.63
2023-05-11T13:04:48.913Z,6.32
2023-05-11T13:07:25.906Z,6.68
2023-05-11T13:09:58.182Z,4.03
2023-05-11T13:12:25.900Z,4.78
2023-05-11T13:15:12.965Z,4.63
2023-05-11T13:17:41.923Z,5.75
2023-05-11T13:20:27.266Z,3.65
2023-05-11T13:23:10.557Z,4.20
2023-05-11T13:25:46.541Z,4.40
2023-05-11T13:28:19.724Z,3.42
2023-05-11T13:30:46.964Z,4.55
2023-05-11T13:33:13.908Z,4.60
2023-05-11T13:35:41.874Z,4.22
2023-05-11T13:38:09.611Z,2.70
2023-05-11T13:40:37.023Z,3.25
2023-05-11T13:43:04.121Z,5.50
2023-05-11T13:45:31.009Z,8.32
2023-05-11T13:47:57.866Z,3.65
2023-05-11T13:50:26.244Z,2.58
2023-05-11T13:52:53.866Z,4.60
2023-05-11T13:55:21.498Z,4.63
2023-05-11T13:57:48.495Z,2.88
2023-05-11T14:00:16.005Z,2.83
2023-05-11T14:02:44.248Z,2.55
2023-05-11T14:05:11.403Z,2.53
2023-05-11T14:07:46.821Z,3.45
2023-05-11T14:10:16.860Z,3.60
2023-05-11T14:12:43.613Z,5.20
2023-05-11T14:15:11.279Z,8.00
2023-05-11T14:17:38.114Z,4.28
2023-05-11T14:20:06.149Z,3.35
2023-05-11T14:22:33.127Z,4.28
2023-05-11T14:25:01.680Z,3.60
2023-05-11T14:27:29.711Z,5.88
2023-05-11T14:29:56.983Z,6.72
2023-05-11T14:32:23.725Z,2.83
2023-05-11T14:34:50.743Z,4.22
2023-05-11T14:37:17.457Z,6.88
2023-05-11T14:39:44.396Z,6.15
2023-05-11T14:42:11.195Z,3.25
2023-05-11T14:44:37.974Z,2.83
2023-05-11T14:47:05.596Z,7.68
2023-05-11T14:49:32.844Z,4.85
2023-05-11T14:51:59.822Z,4.47
2023-05-11T14:54:26.633Z,5.72
2023-05-11T14:56:56.159Z,3.13
2023-05-11T14:59:26.932Z,3.07
2023-05-11T15:01:53.829Z,4.25
2023-05-11T15:04:20.695Z,3.47
2023-05-11T15:06:47.924Z,2.85
2023-05-11T15:09:14.810Z,3.97
2023-05-11T15:11:41.524Z,3.10
2023-05-11T15:14:08.370Z,4.75
2023-05-11T15:16:35.114Z,3.72
2023-05-11T15:19:02.175Z,6.70
2023-05-11T15:21:28.989Z,3.28
2023-05-11T15:23:55.858Z,3.83
2023-05-11T15:26:23.004Z,3.60
2023-05-11T15:28:50.003Z,3.75
2023-05-11T15:31:16.895Z,4.10
2023-05-11T15:33:44.718Z,3.22
2023-05-11T15:36:13.147Z,3.53
2023-05-11T15:38:40.578Z,4.00
2023-05-11T15:41:07.880Z,4.78
2023-05-11T15:43:35.258Z,2.60
2023-05-11T15:46:04.996Z,3.63
2023-05-11T15:48:31.806Z,4.82
2023-05-11T15:51:02.234Z,5.93
2023-05-11T15:53:28.976Z,3.47
2023-05-11T15:55:56.793Z,5.47
2023-05-11T15:58:23.629Z,4.78
2023-05-11T16:00:50.431Z,3.33
2023-05-11T16:03:17.449Z,2.55
2023-05-11T16:05:45.587Z,4.75
2023-05-11T16:08:13.114Z,4.20
2023-05-11T16:10:40.041Z,4.53
2023-05-11T16:13:07.212Z,3.45
2023-05-11T16:15:33.936Z,2.67
2023-05-11T16:18:03.061Z,3.72
2023-05-11T16:20:31.654Z,4.57
2023-05-11T16:22:58.413Z,3.08
2023-05-11T16:25:25.245Z,4.18
2023-05-11T16:27:52.215Z,7.50
2023-05-11T16:30:25.065Z,5.82
2023-05-11T16:32:53.726Z,6.60
2023-05-11T16:35:21.007Z,4.70
2023-05-11T16:37:48.425Z,3.78
2023-05-11T16:40:19.569Z,2.40
2023-05-11T16:45:15.353Z,6.47
2023-05-11T16:47:44.864Z,4.75
2023-05-11T16:50:14.871Z,5.25
2023-05-11T16:52:42.907Z,2.60
2023-05-11T16:55:10.480Z,2.35
2023-05-11T16:57:38.225Z,2.60
2023-05-11T17:00:06.498Z,4.82
2023-05-11T17:02:33.733Z,2.40
2023-05-11T17:05:00.824Z,3.75
2023-05-11T17:07:27.813Z,5.72
2023-05-11T17:09:57.171Z,2.90
2023-05-11T17:12:24.584Z,6.18
2023-05-11T17:14:51.576Z,3.42
2023-05-11T17:17:18.498Z,3.85
2023-05-11T17:19:45.600Z,4.22
2023-05-11T17:22:12.831Z,5.30
2023-05-11T17:24:40.221Z,4.78
2023-05-11T17:27:07.251Z,3.22
2023-05-11T17:29:34.480Z,5.05
2023-05-11T17:32:01.647Z,5.68
2023-05-11T17:34:29.033Z,3.25
2023-05-11T17:36:57.050Z,4.30
2023-05-11T17:39:24.052Z,3.28
2023-05-11T17:41:51.155Z,8.85
2023-05-11T17:44:21.395Z,2.78
2023-05-11T17:46:48.830Z,5.68
2023-05-11T17:49:15.669Z,4.15
2023-05-11T17:51:43.047Z,3.63
2023-05-11T17:54:10.190Z,3.28
2023-05-11T17:56:37.144Z,4.82
2023-05-11T17:59:04.521Z,10.82
2023-05-11T18:01:32.254Z,5.13
2023-05-11T18:04:00.870Z,7.32
2023-05-11T18:06:28.647Z,4.47
2023-05-11T18:08:55.894Z,4.82
2023-05-11T18:11:23.201Z,9.43
2023-05-11T18:13:50.381Z,9.60
2023-05-11T18:16:17.995Z,6.03
2023-05-11T18:18:45.358Z,5.07
2023-05-11T18:21:12.404Z,6.90
2023-05-11T18:23:39.636Z,8.27
2023-05-11T18:26:07.188Z,8.75
2023-05-11T18:28:34.259Z,5.30
2023-05-11T18:31:01.466Z,7.50
2023-05-11T18:33:28.684Z,4.60
2023-05-11T18:35:55.747Z,3.95
2023-05-11T18:38:22.851Z,4.43
2023-05-11T18:40:49.817Z,5.53
2023-05-11T18:43:16.767Z,5.22
2023-05-11T18:45:45.922Z,10.20
2023-05-11T18:48:12.719Z,4.95
2023-05-11T18:50:40.500Z,4.43
2023-05-11T18:53:07.580Z,13.55
2023-05-11T18:55:44.843Z,4.40
2023-05-11T18:58:20.374Z,7.05
2023-05-11T19:00:48.713Z,6.10
2023-05-11T19:03:21.241Z,6.38
2023-05-11T19:05:49.091Z,7.25
2023-05-11T19:08:16.442Z,5.63
2023-05-11T19:10:48.225Z,7.00
2023-05-11T19:13:15.321Z,4.47
2023-05-11T19:15:42.151Z,4.57
2023-05-11T19:18:09.348Z,7.05
2023-05-11T19:20:37.588Z,3.92
2023-05-11T19:23:05.301Z,4.53
2023-05-11T19:25:32.241Z,6.18
2023-05-11T19:27:59.851Z,4.38
2023-05-11T19:30:26.678Z,7.28
2023-05-11T19:32:53.466Z,4.93
2023-05-11T19:35:24.092Z,4.50
2023-05-11T19:37:50.931Z,5.72
2023-05-11T19:40:44.404Z,3.80
2023-05-11T19:43:06.945Z,4.90
2023-05-11T19:45:34.092Z,4.57
2023-05-11T19:48:00.952Z,5.53
2023-05-11T19:50:27.990Z,5.35
2023-05-11T19:52:54.985Z,6.35
2023-05-11T19:55:21.770Z,4.50
2023-05-11T19:57:48.554Z,8.20
2023-05-11T20:00:17.956Z,7.07
2023-05-11T20:02:45.019Z,9.80
2023-05-11T20:05:12.036Z,12.23
2023-05-11T20:07:39.726Z,16.20
2023-05-11T20:10:07.020Z,12.85
2023-05-11T20:12:33.749Z,15.93
2023-05-11T20:15:01.002Z,16.33
2023-05-11T20:17:27.723Z,14.57
2023-05-11T20:19:54.519Z,16.13
2023-05-11T20:22:22.576Z,9.32
2023-05-11T20:24:49.259Z,12.48
2023-05-11T20:27:15.953Z,11.18
2023-05-11T20:29:43.231Z,11.85
2023-05-11T20:32:09.916Z,16.38
2023-05-11T20:34:36.761Z,15.15
2023-05-11T20:37:03.688Z,11.80
2023-05-11T20:39:30.435Z,11.15
2023-05-11T20:41:59.183Z,15.63
2023-05-11T20:44:26.479Z,10.85
2023-05-11T20:46:53.155Z,9.82
2023-05-11T20:49:34.582Z,11.60
2023-05-11T20:52:05.924Z,9.88
2023-05-11T20:54:34.811Z,14.25
2023-05-11T20:57:02.627Z,9.05
2023-05-11T21:02:01.321Z,11.23
2023-05-11T21:04:29.856Z,10.07
2023-05-11T21:06:56.609Z,8.18
2023-05-11T21:09:23.280Z,13.68
2023-05-11T21:11:50.006Z,11.45
2023-05-11T21:14:16.825Z,8.55
2023-05-11T21:16:43.733Z,21.17
2023-05-11T21:19:10.596Z,18.92
2023-05-11T21:21:37.963Z,36.83
2023-05-11T21:24:06.284Z,33.40
2023-05-11T21:26:33.035Z,47.03
2023-05-11T21:29:00.556Z,68.97
2023-05-11T21:31:27.506Z,77.68
2023-05-11T21:33:54.650Z,81.00
2023-05-11T21:36:22.493Z,91.65
2023-05-11T21:38:49.479Z,114.25
2023-05-11T21:41:17.001Z,105.47
2023-05-11T21:43:44.227Z,85.53
2023-05-11T21:46:11.104Z,93.53
2023-05-11T21:48:38.103Z,107.07
2023-05-11T21:51:05.099Z,128.57
2023-05-11T21:53:32.042Z,112.07
2023-05-11T21:55:58.871Z,112.88
2023-05-11T21:58:26.456Z,129.18
2023-05-11T22:00:53.618Z,115.20
2023-05-11T22:03:20.567Z,105.13
2023-05-11T22:05:47.552Z,108.57
2023-05-11T22:08:15.744Z,123.55
2023-05-11T22:10:46.747Z,109.75
2023-05-11T22:13:13.837Z,98.35
2023-05-11T22:15:44.691Z,78.72
2023-05-11T22:18:12.024Z,74.80
2023-05-11T22:20:39.135Z,70.05
2023-05-11T22:23:06.291Z,60.80
2023-05-11T22:25:34.005Z,72.93
2023-05-11T22:28:01.482Z,68.50
2023-05-11T22:30:28.420Z,58.90
2023-05-11T22:32:55.870Z,41.65
2023-05-11T22:35:23.105Z,39.92
2023-05-11T22:37:50.295Z,25.27
2023-05-11T22:40:21.858Z,26.38
2023-05-11T22:42:53.051Z,20.08
2023-05-11T22:45:24.475Z,22.67
2023-05-11T22:50:22.261Z,27.50
2023-05-11T22:52:49.412Z,32.65
2023-05-11T22:55:16.317Z,26.05
2023-05-11T22:57:44.102Z,17.15
2023-05-11T23:00:12.482Z,16.13
2023-05-11T23:02:40.490Z,13.40
2023-05-11T23:05:08.239Z,14.10
2023-05-11T23:07:39.617Z,13.43
2023-05-11T23:10:07.016Z,15.05
2023-05-11T23:12:38.885Z,10.75
2023-05-11T23:15:06.736Z,13.90
2023-05-11T23:17:34.079Z,16.17
2023-05-11T23:20:04.935Z,10.10
2023-05-11T23:22:32.250Z,16.75
2023-05-11T23:25:03.446Z,9.05
2023-05-11T23:27:34.676Z,9.30
2023-05-11T23:30:01.728Z,11.23
2023-05-11T23:32:32.832Z,10.73
2023-05-11T23:35:04.416Z,15.82
2023-05-11T23:37:34.685Z,8.45
2023-05-11T23:40:05.922Z,10.80
2023-05-11T23:42:42.571Z,10.05
2023-05-11T23:45:13.578Z,8.50
2023-05-11T23:47:40.620Z,9.63
2023-05-11T23:50:08.435Z,8.98
2023-05-11T23:52:38.834Z,11.75
2023-05-11T23:55:08.069Z,12.57
2023-05-11T23:57:35.398Z,9.98
